createdAt,value
2019-04-28T00:00:56.582Z,96.27
2019-04-28T00:01:56.571Z,95.76
2019-04-28T00:02:56.562Z,96.27
2019-04-28T00:03:56.585Z,95.76
2019-04-28T00:04:56.541Z,95.76
2019-04-28T00:05:56.533Z,96.06
2019-04-28T00:06:56.515Z,95.86
2019-04-28T00:07:56.511Z,95.76
2019-04-28T00:08:56.522Z,95.81
2019-04-28T00:09:56.487Z,95.81
2019-04-28T00:10:56.478Z,95.65
2019-04-28T00:11:56.472Z,95.81
2019-04-28T00:12:56.454Z,95.81
2019-04-28T00:13:56.472Z,95.81
2019-04-28T00:14:56.434Z,95.45
2019-04-28T00:15:56.418Z,95.71
2019-04-28T00:16:56.413Z,94.89
2019-04-28T00:17:56.404Z,94.99
2019-04-28T00:18:56.424Z,95.30
2019-04-28T00:19:56.384Z,95.09
2019-04-28T00:20:56.371Z,94.89
2019-04-28T00:21:56.360Z,95.20
2019-04-28T00:22:56.360Z,94.68
2019-04-28T00:23:56.362Z,94.78
2019-04-28T00:24:56.329Z,94.89
2019-04-28T00:25:56.316Z,94.74
2019-04-28T00:26:56.316Z,94.57
2019-04-28T00:27:56.299Z,94.68
2019-04-28T00:28:56.318Z,94.47
2019-04-28T00:29:56.273Z,93.96
2019-04-28T00:30:56.258Z,94.17
2019-04-28T00:31:56.253Z,94.02
2019-04-28T00:32:56.239Z,94.12
2019-04-28T00:33:56.259Z,93.50
2019-04-28T00:34:56.221Z,93.65
2019-04-28T00:35:56.226Z,93.50
2019-04-28T00:36:56.196Z,93.34
2019-04-28T00:37:56.186Z,93.60
2019-04-28T00:38:56.208Z,93.60
2019-04-28T00:39:56.162Z,93.96
2019-04-28T00:40:56.158Z,93.34
2019-04-28T00:41:56.143Z,94.06
2019-04-28T00:42:56.132Z,93.65
2019-04-28T00:43:56.158Z,94.17
2019-04-28T00:44:56.121Z,93.19
2019-04-28T00:45:56.101Z,92.72
2019-04-28T00:46:56.097Z,93.19
2019-04-28T00:47:56.081Z,92.99
2019-04-28T00:48:56.101Z,92.78
2019-04-28T00:49:56.060Z,93.09
2019-04-28T00:50:56.049Z,92.78
2019-04-28T00:51:56.040Z,92.78
2019-04-28T00:52:56.044Z,92.78
2019-04-28T00:53:56.051Z,92.68
2019-04-28T00:54:56.005Z,92.16
2019-04-28T00:55:56.000Z,92.37
2019-04-28T00:56:55.982Z,91.64
2019-04-28T00:57:55.971Z,91.54
2019-04-28T00:58:55.988Z,92.27
2019-04-28T00:59:58.737Z,91.64
2019-04-28T01:00:55.938Z,91.54
2019-04-28T01:01:55.929Z,91.54
2019-04-28T01:02:55.919Z,92.47
2019-04-28T01:03:55.939Z,92.47
2019-04-28T01:04:55.899Z,92.47
2019-04-28T01:05:55.889Z,92.47
2019-04-28T01:06:55.879Z,92.37
2019-04-28T01:07:55.863Z,92.37
2019-04-28T01:08:55.886Z,92.68
2019-04-28T01:09:55.848Z,92.06
2019-04-28T01:10:55.833Z,92.37
2019-04-28T01:11:55.821Z,92.57
2019-04-28T01:12:55.812Z,92.68
2019-04-28T01:13:55.826Z,92.72
2019-04-28T01:14:57.987Z,91.75
2019-04-28T01:15:55.778Z,92.27
2019-04-28T01:16:55.767Z,92.00
2019-04-28T01:17:55.761Z,92.51
2019-04-28T01:18:55.772Z,92.37
2019-04-28T01:19:55.735Z,92.16
2019-04-28T01:20:55.724Z,92.47
2019-04-28T01:21:55.715Z,91.34
2019-04-28T01:22:55.703Z,91.54
2019-04-28T01:23:55.719Z,91.54
2019-04-28T01:24:55.687Z,91.54
2019-04-28T01:25:55.718Z,91.44
2019-04-28T01:26:55.686Z,91.34
2019-04-28T01:27:55.672Z,91.24
2019-04-28T01:28:55.686Z,91.03
2019-04-28T01:30:06.261Z,91.44
2019-04-28T01:30:56.614Z,92.47
2019-04-28T01:31:55.606Z,92.57
2019-04-28T01:32:55.604Z,92.37
2019-04-28T01:33:55.618Z,92.61
2019-04-28T01:34:55.576Z,92.93
2019-04-28T01:35:55.568Z,92.31
2019-04-28T01:36:55.554Z,92.61
2019-04-28T01:37:55.543Z,92.31
2019-04-28T01:38:55.559Z,92.51
2019-04-28T01:39:55.524Z,92.82
2019-04-28T01:40:55.512Z,92.10
2019-04-28T01:41:55.501Z,92.57
2019-04-28T01:42:55.491Z,92.41
2019-04-28T01:43:55.503Z,92.51
2019-04-28T01:44:55.470Z,93.13
2019-04-28T01:45:55.462Z,92.72
2019-04-28T01:46:55.452Z,92.51
2019-04-28T01:47:55.436Z,92.51
2019-04-28T01:48:55.456Z,92.31
2019-04-28T01:49:55.414Z,92.10
2019-04-28T01:50:55.407Z,91.89
2019-04-28T01:51:55.396Z,92.21
2019-04-28T01:52:55.382Z,92.31
2019-04-28T01:53:55.407Z,92.31
2019-04-28T01:54:55.362Z,92.82
2019-04-28T01:55:55.352Z,93.13
2019-04-28T01:56:55.342Z,92.82
2019-04-28T01:57:55.332Z,93.03
2019-04-28T01:58:55.345Z,92.82
2019-04-28T01:59:55.312Z,93.03
2019-04-28T02:00:55.294Z,92.61
2019-04-28T02:01:55.283Z,93.13
2019-04-28T02:02:55.275Z,92.82
2019-04-28T02:03:55.291Z,92.93
2019-04-28T02:04:55.262Z,93.24
2019-04-28T02:05:55.258Z,93.24
2019-04-28T02:06:55.235Z,93.18
2019-04-28T02:07:55.225Z,92.82
2019-04-28T02:08:55.235Z,92.41
2019-04-28T02:09:55.203Z,92.61
2019-04-28T02:10:55.191Z,92.93
2019-04-28T02:11:55.178Z,92.51
2019-04-28T02:12:55.170Z,92.10
2019-04-28T02:13:55.191Z,92.41
2019-04-28T02:14:55.150Z,93.34
2019-04-28T02:15:55.139Z,93.13
2019-04-28T02:16:55.130Z,92.61
2019-04-28T02:17:55.114Z,92.93
2019-04-28T02:18:55.132Z,93.13
2019-04-28T02:19:55.099Z,92.93
2019-04-28T02:20:55.086Z,92.61
2019-04-28T02:21:55.075Z,92.93
2019-04-28T02:22:55.063Z,93.13
2019-04-28T02:23:55.090Z,93.28
2019-04-28T02:24:55.042Z,93.59
2019-04-28T02:25:55.034Z,93.49
2019-04-28T02:26:55.017Z,93.49
2019-04-28T02:27:57.123Z,93.18
2019-04-28T02:28:55.027Z,92.93
2019-04-28T02:29:54.989Z,92.93
2019-04-28T02:30:55.014Z,92.82
2019-04-28T02:31:54.971Z,93.03
2019-04-28T02:32:54.962Z,93.13
2019-04-28T02:33:54.973Z,92.61
2019-04-28T02:34:54.937Z,92.93
2019-04-28T02:35:54.931Z,92.82
2019-04-28T02:36:54.959Z,93.44
2019-04-28T02:37:54.906Z,93.49
2019-04-28T02:38:54.922Z,93.24
2019-04-28T02:39:54.886Z,92.86
2019-04-28T02:40:54.887Z,93.59
2019-04-28T02:41:54.870Z,93.49
2019-04-28T02:42:54.850Z,93.79
2019-04-28T02:43:54.870Z,93.49
2019-04-28T02:44:54.832Z,93.24
2019-04-28T02:45:54.821Z,93.49
2019-04-28T02:46:54.822Z,92.97
2019-04-28T02:47:54.799Z,93.38
2019-04-28T02:48:54.819Z,94.00
2019-04-28T02:49:54.781Z,93.79
2019-04-28T02:50:54.772Z,94.10
2019-04-28T02:51:54.762Z,94.10
2019-04-28T02:52:54.760Z,94.10
2019-04-28T02:53:54.779Z,94.52
2019-04-28T02:54:54.735Z,94.52
2019-04-28T02:55:54.718Z,94.82
2019-04-28T02:56:54.706Z,94.77
2019-04-28T02:57:54.691Z,94.77
2019-04-28T02:58:54.716Z,94.72
2019-04-28T02:59:54.694Z,94.87
2019-04-28T03:01:06.757Z,94.67
2019-04-28T03:01:55.671Z,94.97
2019-04-28T03:02:54.641Z,94.52
2019-04-28T03:03:54.657Z,94.46
2019-04-28T03:04:54.634Z,95.18
2019-04-28T03:05:54.616Z,94.97
2019-04-28T03:06:54.600Z,94.87
2019-04-28T03:07:54.595Z,94.62
2019-04-28T03:08:54.605Z,94.42
2019-04-28T03:09:54.568Z,94.67
2019-04-28T03:10:54.559Z,94.87
2019-04-28T03:11:54.551Z,94.97
2019-04-28T03:12:54.559Z,94.82
2019-04-28T03:13:54.546Z,94.97
2019-04-28T03:14:54.512Z,94.97
2019-04-28T03:15:54.510Z,95.03
2019-04-28T03:16:54.494Z,94.87
2019-04-28T03:17:54.485Z,94.97
2019-04-28T03:18:54.495Z,95.07
2019-04-28T03:19:54.462Z,95.07
2019-04-28T03:20:54.442Z,94.77
2019-04-28T03:21:54.442Z,95.28
2019-04-28T03:22:54.432Z,95.28
2019-04-28T03:23:54.444Z,94.97
2019-04-28T03:24:54.412Z,95.07
2019-04-28T03:25:54.401Z,94.87
2019-04-28T03:26:54.392Z,94.77
2019-04-28T03:27:54.386Z,94.97
2019-04-28T03:28:54.395Z,94.97
2019-04-28T03:29:54.363Z,95.07
2019-04-28T03:30:54.684Z,95.18
2019-04-28T03:32:15.949Z,94.87
2019-04-28T03:33:04.978Z,94.97
2019-04-28T03:33:56.280Z,94.87
2019-04-28T03:34:54.668Z,94.67
2019-04-28T03:35:54.501Z,94.97
2019-04-28T03:36:54.282Z,95.28
2019-04-28T03:37:54.270Z,95.14
2019-04-28T03:38:54.285Z,94.97
2019-04-28T03:39:54.283Z,95.39
2019-04-28T03:40:54.244Z,95.07
2019-04-28T03:41:54.232Z,95.18
2019-04-28T03:42:54.232Z,95.18
2019-04-28T03:43:54.210Z,95.39
2019-04-28T03:44:54.224Z,95.18
2019-04-28T03:45:54.189Z,95.07
2019-04-28T03:46:54.198Z,95.28
2019-04-28T03:47:54.180Z,95.39
2019-04-28T03:48:54.155Z,94.87
2019-04-28T03:49:54.176Z,94.87
2019-04-28T03:50:54.136Z,94.77
2019-04-28T03:51:54.130Z,94.67
2019-04-28T03:52:54.113Z,94.72
2019-04-28T03:53:54.116Z,94.67
2019-04-28T03:54:54.122Z,94.31
2019-04-28T03:55:54.088Z,94.46
2019-04-28T03:56:54.073Z,94.35
2019-04-28T03:57:54.059Z,94.15
2019-04-28T03:58:54.064Z,93.69
2019-04-28T03:59:54.085Z,93.38
2019-04-28T04:00:54.024Z,93.79
2019-04-28T04:01:59.400Z,93.38
2019-04-28T04:02:55.015Z,93.59
2019-04-28T04:03:54.001Z,93.79
2019-04-28T04:04:54.029Z,93.28
2019-04-28T04:05:53.977Z,93.90
2019-04-28T04:06:53.979Z,93.18
2019-04-28T04:07:53.956Z,92.97
2019-04-28T04:08:53.948Z,93.18
2019-04-28T04:09:53.968Z,93.38
2019-04-28T04:10:53.931Z,93.38
2019-04-28T04:11:53.915Z,92.86
2019-04-28T04:12:53.914Z,92.86
2019-04-28T04:13:53.910Z,93.07
2019-04-28T04:14:53.917Z,92.86
2019-04-28T04:15:54.730Z,92.86
2019-04-28T04:16:53.875Z,93.07
2019-04-28T04:17:53.842Z,92.66
2019-04-28T04:18:54.159Z,92.35
2019-04-28T04:19:53.863Z,92.14
2019-04-28T04:20:53.830Z,92.35
2019-04-28T04:21:53.819Z,92.55
2019-04-28T04:22:53.796Z,91.94
2019-04-28T04:23:53.781Z,91.89
2019-04-28T04:24:53.798Z,92.04
2019-04-28T04:25:53.753Z,92.14
2019-04-28T04:26:53.754Z,92.35
2019-04-28T04:27:53.746Z,92.66
2019-04-28T04:28:53.741Z,92.51
2019-04-28T04:29:53.749Z,91.52
2019-04-28T04:30:53.709Z,91.38
2019-04-28T04:32:09.389Z,91.28
2019-04-28T04:32:54.695Z,91.32
2019-04-28T04:33:53.684Z,91.58
2019-04-28T04:34:53.716Z,91.79
2019-04-28T04:35:53.661Z,92.31
2019-04-28T04:36:53.650Z,91.89
2019-04-28T04:37:53.642Z,92.21
2019-04-28T04:38:53.628Z,91.73
2019-04-28T04:39:53.615Z,92.51
2019-04-28T04:40:53.629Z,91.38
2019-04-28T04:41:53.598Z,90.76
2019-04-28T04:42:53.582Z,91.38
2019-04-28T04:43:53.581Z,91.48
2019-04-28T04:44:53.569Z,91.28
2019-04-28T04:45:53.580Z,91.28
2019-04-28T04:46:53.541Z,91.54
2019-04-28T04:47:53.541Z,91.07
2019-04-28T04:48:53.528Z,91.58
2019-04-28T04:49:53.510Z,90.76
2019-04-28T04:50:53.532Z,90.97
2019-04-28T04:51:53.495Z,90.86
2019-04-28T04:52:53.481Z,90.86
2019-04-28T04:53:53.464Z,91.64
2019-04-28T04:54:53.460Z,90.92
2019-04-28T04:55:53.474Z,90.51
2019-04-28T04:56:53.437Z,90.41
2019-04-28T04:57:53.437Z,90.61
2019-04-28T04:58:53.414Z,90.10
2019-04-28T04:59:53.408Z,90.20
2019-04-28T05:00:53.422Z,89.69
2019-04-28T05:01:53.381Z,90.41
2019-04-28T05:02:55.316Z,89.69
2019-04-28T05:03:53.358Z,89.58
2019-04-28T05:04:53.349Z,89.69
2019-04-28T05:05:53.365Z,90.20
2019-04-28T05:06:53.328Z,90.41
2019-04-28T05:07:53.323Z,90.10
2019-04-28T05:08:53.304Z,90.10
2019-04-28T05:09:53.297Z,90.31
2019-04-28T05:10:53.298Z,90.31
2019-04-28T05:11:53.281Z,90.00
2019-04-28T05:12:53.277Z,90.00
2019-04-28T05:13:53.254Z,89.48
2019-04-28T05:14:53.229Z,90.10
2019-04-28T05:15:53.264Z,89.23
2019-04-28T05:16:53.229Z,89.23
2019-04-28T05:17:53.210Z,89.13
2019-04-28T05:18:53.196Z,89.95
2019-04-28T05:19:53.191Z,90.16
2019-04-28T05:20:53.195Z,89.95
2019-04-28T05:21:53.167Z,90.06
2019-04-28T05:22:53.161Z,89.95
2019-04-28T05:23:53.146Z,89.65
2019-04-28T05:24:54.394Z,89.23
2019-04-28T05:25:53.147Z,90.37
2019-04-28T05:26:53.115Z,89.34
2019-04-28T05:27:54.562Z,89.91
2019-04-28T05:28:54.095Z,90.22
2019-04-28T05:29:56.894Z,89.50
2019-04-28T05:30:54.093Z,89.29
2019-04-28T05:31:54.878Z,88.47
2019-04-28T05:32:56.320Z,89.29
2019-04-28T05:33:53.051Z,88.89
2019-04-28T05:34:53.304Z,88.68
2019-04-28T05:35:54.586Z,89.40
2019-04-28T05:36:53.031Z,88.89
2019-04-28T05:37:52.995Z,89.56
2019-04-28T05:38:52.983Z,88.68
2019-04-28T05:39:52.978Z,88.84
2019-04-28T05:40:52.967Z,88.99
2019-04-28T05:41:52.978Z,88.33
2019-04-28T05:42:52.939Z,88.53
2019-04-28T05:43:52.929Z,88.43
2019-04-28T05:44:52.918Z,88.43
2019-04-28T05:45:52.911Z,88.33
2019-04-28T05:46:52.926Z,87.40
2019-04-28T05:47:52.884Z,87.51
2019-04-28T05:48:52.875Z,87.81
2019-04-28T05:49:52.868Z,87.98
2019-04-28T05:50:52.857Z,88.90
2019-04-28T05:51:52.870Z,87.36
2019-04-28T05:52:52.845Z,87.46
2019-04-28T05:53:53.908Z,88.80
2019-04-28T05:54:52.801Z,87.87
2019-04-28T05:55:52.810Z,87.26
2019-04-28T05:56:52.825Z,87.05
2019-04-28T05:57:53.100Z,87.46
2019-04-28T05:58:52.772Z,87.26
2019-04-28T05:59:52.758Z,87.87
2019-04-28T06:00:52.748Z,86.33
2019-04-28T06:01:52.765Z,87.05
2019-04-28T06:02:56.492Z,87.01
2019-04-28T06:03:52.715Z,86.43
2019-04-28T06:04:52.707Z,86.02
2019-04-28T06:05:52.699Z,86.29
2019-04-28T06:06:52.715Z,86.66
2019-04-28T06:07:52.672Z,87.18
2019-04-28T06:08:52.667Z,86.05
2019-04-28T06:09:52.657Z,85.63
2019-04-28T06:10:52.631Z,85.94
2019-04-28T06:11:54.476Z,85.63
2019-04-28T06:12:52.627Z,85.80
2019-04-28T06:13:52.617Z,85.28
2019-04-28T06:14:52.602Z,85.90
2019-04-28T06:15:52.596Z,85.18
2019-04-28T06:16:52.617Z,84.56
2019-04-28T06:17:52.569Z,84.16
2019-04-28T06:18:52.557Z,84.53
2019-04-28T06:19:52.551Z,84.22
2019-04-28T06:20:52.539Z,83.75
2019-04-28T06:21:52.526Z,84.16
2019-04-28T06:22:52.546Z,85.70
2019-04-28T06:23:52.512Z,84.47
2019-04-28T06:24:52.497Z,83.50
2019-04-28T06:25:52.483Z,85.55
2019-04-28T06:26:52.479Z,84.01
2019-04-28T06:27:52.491Z,85.04
2019-04-28T06:28:52.451Z,84.53
2019-04-28T06:29:52.442Z,84.22
2019-04-28T06:30:52.433Z,83.70
2019-04-28T06:31:52.421Z,84.18
2019-04-28T06:32:52.434Z,84.39
2019-04-28T06:33:52.397Z,82.54
2019-04-28T06:34:52.389Z,82.84
2019-04-28T06:35:52.375Z,82.19
2019-04-28T06:36:52.363Z,82.54
2019-04-28T06:37:52.386Z,82.84
2019-04-28T06:38:52.343Z,81.30
2019-04-28T06:39:52.333Z,82.33
2019-04-28T06:40:52.327Z,82.13
2019-04-28T06:41:52.311Z,82.43
2019-04-28T06:42:52.327Z,82.43
2019-04-28T06:43:52.292Z,82.64
2019-04-28T06:44:52.308Z,82.19
2019-04-28T06:45:52.266Z,80.65
2019-04-28T06:46:52.262Z,81.88
2019-04-28T06:47:52.247Z,83.07
2019-04-28T06:48:52.234Z,81.74
2019-04-28T06:49:52.258Z,81.95
2019-04-28T06:50:52.214Z,81.23
2019-04-28T06:51:52.204Z,82.32
2019-04-28T06:52:52.195Z,80.00
2019-04-28T06:53:52.187Z,80.31
2019-04-28T06:54:52.204Z,80.51
2019-04-28T06:55:52.158Z,82.09
2019-04-28T06:56:52.146Z,80.24
2019-04-28T06:57:52.167Z,80.86
2019-04-28T06:58:58.781Z,82.56
2019-04-28T06:59:53.165Z,81.02
2019-04-28T07:00:52.106Z,82.42
2019-04-28T07:01:52.095Z,81.05
2019-04-28T07:02:52.120Z,80.13
2019-04-28T07:03:52.076Z,80.33
2019-04-28T07:05:01.571Z,79.82
2019-04-28T07:05:53.056Z,80.40
2019-04-28T07:06:52.046Z,78.56
2019-04-28T07:07:52.060Z,80.23
2019-04-28T07:08:52.022Z,81.38
2019-04-28T07:09:52.012Z,78.93
2019-04-28T07:10:52.004Z,79.17
2019-04-28T07:11:51.994Z,79.17
2019-04-28T07:12:52.019Z,76.98
2019-04-28T07:13:51.971Z,79.20
2019-04-28T07:14:51.961Z,79.30
2019-04-28T07:15:51.954Z,78.86
2019-04-28T07:16:51.938Z,75.85
2019-04-28T07:17:51.970Z,74.66
2019-04-28T07:18:51.916Z,76.26
2019-04-28T07:19:51.913Z,76.88
2019-04-28T07:20:51.903Z,76.33
2019-04-28T07:21:51.875Z,74.29
2019-04-28T07:22:51.908Z,76.03
2019-04-28T07:23:51.870Z,74.22
2019-04-28T07:24:51.843Z,75.85
2019-04-28T07:25:51.848Z,75.51
2019-04-28T07:26:51.840Z,74.08
2019-04-28T07:27:51.851Z,73.61
2019-04-28T07:28:51.828Z,73.68
2019-04-28T07:29:51.817Z,73.44
2019-04-28T07:30:51.786Z,73.23
2019-04-28T07:31:51.784Z,69.96
2019-04-28T07:32:51.808Z,71.19
2019-04-28T07:33:51.756Z,73.27
2019-04-28T07:34:51.754Z,76.77
2019-04-28T07:35:51.739Z,73.50
2019-04-28T07:36:51.726Z,75.21
2019-04-28T07:37:51.721Z,73.74
2019-04-28T07:38:51.737Z,73.54
2019-04-28T07:39:51.696Z,70.41
2019-04-28T07:40:51.690Z,71.87
2019-04-28T07:41:51.675Z,68.51
2019-04-28T07:42:51.665Z,67.73
2019-04-28T07:43:51.682Z,70.24
2019-04-28T07:44:51.647Z,70.21
2019-04-28T07:45:51.631Z,67.69
2019-04-28T07:46:51.623Z,68.58
2019-04-28T07:47:51.612Z,67.80
2019-04-28T07:48:52.486Z,66.52
2019-04-28T07:49:51.592Z,68.32
2019-04-28T07:50:51.587Z,67.94
2019-04-28T07:51:51.567Z,68.08
2019-04-28T07:52:51.561Z,65.41
2019-04-28T07:53:51.579Z,67.80
2019-04-28T07:54:51.527Z,71.12
2019-04-28T07:55:51.531Z,68.38
2019-04-28T07:56:51.518Z,66.31
2019-04-28T07:57:51.503Z,69.06
2019-04-28T07:58:51.519Z,65.09
2019-04-28T07:59:51.486Z,67.94
2019-04-28T08:00:51.520Z,65.43
2019-04-28T08:01:51.464Z,69.53
2019-04-28T08:02:51.534Z,67.49
2019-04-28T08:03:51.464Z,70.14
2019-04-28T08:04:51.418Z,71.02
2019-04-28T08:05:51.414Z,68.64
2019-04-28T08:06:51.407Z,73.57
2019-04-28T08:07:51.387Z,75.41
2019-04-28T08:08:51.419Z,75.61
2019-04-28T08:09:51.381Z,75.41
2019-04-28T08:10:51.365Z,71.12
2019-04-28T08:11:51.352Z,73.10
2019-04-28T08:12:51.344Z,72.69
2019-04-28T08:13:51.362Z,72.00
2019-04-28T08:14:51.322Z,74.22
2019-04-28T08:15:51.316Z,77.31
2019-04-28T08:16:51.302Z,70.98
2019-04-28T08:17:51.295Z,72.28
2019-04-28T08:18:51.308Z,74.29
2019-04-28T08:19:51.268Z,75.00
2019-04-28T08:20:51.262Z,73.40
2019-04-28T08:21:51.246Z,73.13
2019-04-28T08:22:51.242Z,75.82
2019-04-28T08:23:51.261Z,76.19
2019-04-28T08:24:51.216Z,73.68
2019-04-28T08:25:51.232Z,76.23
2019-04-28T08:26:51.196Z,74.76
2019-04-28T08:27:51.183Z,75.34
2019-04-28T08:28:51.189Z,75.04
2019-04-28T08:29:58.251Z,75.04
2019-04-28T08:30:52.179Z,72.89
2019-04-28T08:31:51.141Z,73.36
2019-04-28T08:32:51.133Z,73.40
2019-04-28T08:34:01.680Z,71.63
2019-04-28T08:34:52.109Z,67.93
2019-04-28T08:35:51.113Z,66.94
2019-04-28T08:36:51.086Z,67.55
2019-04-28T08:37:51.081Z,69.22
2019-04-28T08:38:51.069Z,69.23
2019-04-28T08:39:51.057Z,67.93
2019-04-28T08:40:51.076Z,67.86
2019-04-28T08:41:51.034Z,70.65
2019-04-28T08:42:51.035Z,69.56
2019-04-28T08:43:51.017Z,66.17
2019-04-28T08:44:51.003Z,69.29
2019-04-28T08:45:51.033Z,69.19
2019-04-28T08:46:50.985Z,69.53
2019-04-28T08:47:50.974Z,69.76
2019-04-28T08:48:50.959Z,70.95
2019-04-28T08:49:50.947Z,67.93
2019-04-28T08:50:50.938Z,70.78
2019-04-28T08:51:50.958Z,70.57
2019-04-28T08:52:50.915Z,70.44
2019-04-28T08:53:50.906Z,71.02
2019-04-28T08:54:50.902Z,70.92
2019-04-28T08:55:50.882Z,71.50
2019-04-28T08:56:50.905Z,71.19
2019-04-28T08:57:50.863Z,68.10
2019-04-28T08:58:50.854Z,67.83
2019-04-28T08:59:50.846Z,70.07
2019-04-28T09:00:50.836Z,68.95
2019-04-28T09:01:50.849Z,69.87
2019-04-28T09:02:50.831Z,69.43
2019-04-28T09:03:50.804Z,67.80
2019-04-28T09:04:50.785Z,67.52
2019-04-28T09:05:50.778Z,67.22
2019-04-28T09:06:50.798Z,68.71
2019-04-28T09:07:50.757Z,65.46
2019-04-28T09:08:50.749Z,67.63
2019-04-28T09:09:50.735Z,64.26
2019-04-28T09:10:50.713Z,62.04
2019-04-28T09:11:50.748Z,60.66
2019-04-28T09:12:50.705Z,60.69
2019-04-28T09:13:50.699Z,60.85
2019-04-28T09:14:50.692Z,60.58
2019-04-28T09:15:50.671Z,65.11
2019-04-28T09:16:50.689Z,62.63
2019-04-28T09:17:50.652Z,65.30
2019-04-28T09:18:50.649Z,65.81
2019-04-28T09:19:50.638Z,65.23
2019-04-28T09:20:50.628Z,62.62
2019-04-28T09:21:50.640Z,64.89
2019-04-28T09:22:50.604Z,63.06
2019-04-28T09:23:50.591Z,64.38
2019-04-28T09:24:50.584Z,65.26
2019-04-28T09:25:50.580Z,61.81
2019-04-28T09:26:50.588Z,67.83
2019-04-28T09:27:50.549Z,66.52
2019-04-28T09:28:50.542Z,67.05
2019-04-28T09:29:50.518Z,65.70
2019-04-28T09:30:50.518Z,64.69
2019-04-28T09:31:50.537Z,65.50
2019-04-28T09:32:50.499Z,65.46
2019-04-28T09:33:50.492Z,66.82
2019-04-28T09:34:50.482Z,66.41
2019-04-28T09:35:50.470Z,67.80
2019-04-28T09:36:50.487Z,65.97
2019-04-28T09:37:50.449Z,65.09
2019-04-28T09:38:50.434Z,66.28
2019-04-28T09:39:50.430Z,62.85
2019-04-28T09:40:50.416Z,65.19
2019-04-28T09:41:50.430Z,64.61
2019-04-28T09:42:50.396Z,63.49
2019-04-28T09:43:50.383Z,64.04
2019-04-28T09:44:50.373Z,62.45
2019-04-28T09:45:50.360Z,64.65
2019-04-28T09:46:50.384Z,64.97
2019-04-28T09:47:50.339Z,60.99
2019-04-28T09:48:50.334Z,58.47
2019-04-28T09:49:50.325Z,58.72
2019-04-28T09:50:50.308Z,63.12
2019-04-28T09:51:50.324Z,62.56
2019-04-28T09:52:50.291Z,59.72
2019-04-28T09:53:50.282Z,56.87
2019-04-28T09:54:50.275Z,58.09
2019-04-28T09:55:50.260Z,62.51
2019-04-28T09:56:57.018Z,60.78
2019-04-28T09:57:51.233Z,64.00
2019-04-28T09:58:50.227Z,64.50
2019-04-28T09:59:50.226Z,58.62
2019-04-28T10:00:50.206Z,60.78
2019-04-28T10:01:50.229Z,58.85
2019-04-28T10:02:50.187Z,58.85
2019-04-28T10:03:50.193Z,59.77
2019-04-28T10:04:50.160Z,62.75
2019-04-28T10:05:50.156Z,60.75
2019-04-28T10:06:50.168Z,58.82
2019-04-28T10:07:50.143Z,61.18
2019-04-28T10:08:50.123Z,59.31
2019-04-28T10:09:50.107Z,62.05
2019-04-28T10:10:50.101Z,59.01
2019-04-28T10:11:50.117Z,61.30
2019-04-28T10:12:50.076Z,62.93
2019-04-28T10:13:50.068Z,62.29
2019-04-28T10:14:50.055Z,62.26
2019-04-28T10:15:50.042Z,60.10
2019-04-28T10:16:50.074Z,57.93
2019-04-28T10:17:50.023Z,58.53
2019-04-28T10:18:50.015Z,63.28
2019-04-28T10:19:50.006Z,60.65
2019-04-28T10:20:49.996Z,62.54
2019-04-28T10:21:49.983Z,56.74
2019-04-28T10:22:49.999Z,58.52
2019-04-28T10:23:49.964Z,58.75
2019-04-28T10:24:49.955Z,63.21
2019-04-28T10:25:49.948Z,59.79
2019-04-28T10:26:49.931Z,60.63
2019-04-28T10:27:49.948Z,62.16
2019-04-28T10:28:49.917Z,62.20
2019-04-28T10:29:49.899Z,61.80
2019-04-28T10:30:49.890Z,57.60
2019-04-28T10:31:49.875Z,60.72
2019-04-28T10:32:49.899Z,63.30
2019-04-28T10:33:49.860Z,56.18
2019-04-28T10:34:55.176Z,56.01
2019-04-28T10:35:50.837Z,57.10
2019-04-28T10:36:49.829Z,59.59
2019-04-28T10:37:49.842Z,65.27
2019-04-28T10:38:49.805Z,63.04
2019-04-28T10:39:49.794Z,63.58
2019-04-28T10:40:49.789Z,64.93
2019-04-28T10:41:49.776Z,67.16
2019-04-28T10:42:49.786Z,67.16
2019-04-28T10:43:49.750Z,61.94
2019-04-28T10:44:49.741Z,63.97
2019-04-28T10:45:49.737Z,66.99
2019-04-28T10:46:49.721Z,71.09
2019-04-28T10:47:49.736Z,73.97
2019-04-28T10:48:49.694Z,74.93
2019-04-28T10:49:49.687Z,74.76
2019-04-28T10:50:49.675Z,75.13
2019-04-28T10:51:59.121Z,77.01
2019-04-28T10:52:50.679Z,80.69
2019-04-28T10:53:49.643Z,78.78
2019-04-28T10:54:49.630Z,78.52
2019-04-28T10:55:49.626Z,77.39
2019-04-28T10:56:49.617Z,79.57
2019-04-28T10:57:49.633Z,81.13
2019-04-28T10:58:49.594Z,79.57
2019-04-28T10:59:49.579Z,79.97
2019-04-28T11:00:49.582Z,81.73
2019-04-28T11:01:49.559Z,81.86
2019-04-28T11:02:49.576Z,81.13
2019-04-28T11:03:49.540Z,75.46
2019-04-28T11:04:49.532Z,72.21
2019-04-28T11:05:49.522Z,68.89
2019-04-28T11:06:49.544Z,71.06
2019-04-28T11:07:49.525Z,70.62
2019-04-28T11:08:49.483Z,67.92
2019-04-28T11:09:49.475Z,70.05
2019-04-28T11:10:49.468Z,72.68
2019-04-28T11:11:49.452Z,65.54
2019-04-28T11:12:49.473Z,59.66
2019-04-28T11:13:49.434Z,63.84
2019-04-28T11:14:49.420Z,59.04
2019-04-28T11:15:49.411Z,56.63
2019-04-28T11:16:49.402Z,66.96
2019-04-28T11:17:49.415Z,58.49
2019-04-28T11:18:49.377Z,68.01
2019-04-28T11:19:49.367Z,64.54
2019-04-28T11:20:49.359Z,62.41
2019-04-28T11:21:49.349Z,62.11
2019-04-28T11:22:49.362Z,66.72
2019-04-28T11:23:49.332Z,63.76
2019-04-28T11:24:49.318Z,60.16
2019-04-28T11:25:49.308Z,59.15
2019-04-28T11:26:49.296Z,63.70
2019-04-28T11:27:49.308Z,65.36
2019-04-28T11:28:49.284Z,55.51
2019-04-28T11:29:49.264Z,57.78
2019-04-28T11:30:49.252Z,60.52
2019-04-28T11:31:49.244Z,63.13
2019-04-28T11:32:49.261Z,63.17
2019-04-28T11:33:49.225Z,65.42
2019-04-28T11:34:49.214Z,68.63
2019-04-28T11:35:49.200Z,65.43
2019-04-28T11:36:49.194Z,56.26
2019-04-28T11:37:49.208Z,68.77
2019-04-28T11:38:49.168Z,66.54
2019-04-28T11:39:49.160Z,58.41
2019-04-28T11:40:49.150Z,55.88
2019-04-28T11:41:49.138Z,58.18
2019-04-28T11:42:49.151Z,60.17
2019-04-28T11:43:49.115Z,55.98
2019-04-28T11:44:49.109Z,62.30
2019-04-28T11:45:49.100Z,64.46
2019-04-28T11:46:49.087Z,60.85
2019-04-28T11:47:49.137Z,62.37
2019-04-28T11:48:49.243Z,56.81
2019-04-28T11:49:49.056Z,54.96
2019-04-28T11:50:49.044Z,55.74
2019-04-28T11:51:49.097Z,55.24
2019-04-28T11:52:49.086Z,56.45
2019-04-28T11:53:49.007Z,57.09
2019-04-28T11:54:48.999Z,57.75
2019-04-28T11:55:48.995Z,60.55
2019-04-28T11:56:48.984Z,61.05
2019-04-28T11:57:49.017Z,58.07
2019-04-28T11:58:48.968Z,57.90
2019-04-28T11:59:48.954Z,63.04
2019-04-28T12:00:48.942Z,61.49
2019-04-28T12:01:48.927Z,54.53
2019-04-28T12:02:48.909Z,54.74
2019-04-28T12:03:48.939Z,60.43
2019-04-28T12:04:48.898Z,57.50
2019-04-28T12:05:48.884Z,59.75
2019-04-28T12:06:48.877Z,59.07
2019-04-28T12:07:48.866Z,59.81
2019-04-28T12:08:48.880Z,61.87
2019-04-28T12:09:48.845Z,61.72
2019-04-28T12:10:48.831Z,67.10
2019-04-28T12:11:48.829Z,60.94
2019-04-28T12:12:48.817Z,64.52
2019-04-28T12:13:48.833Z,65.23
2019-04-28T12:14:48.803Z,62.66
2019-04-28T12:15:48.787Z,62.63
2019-04-28T12:16:48.774Z,58.20
2019-04-28T12:17:48.763Z,58.53
2019-04-28T12:18:48.777Z,58.17
2019-04-28T12:19:48.739Z,58.81
2019-04-28T12:20:48.728Z,60.75
2019-04-28T12:21:48.732Z,61.46
2019-04-28T12:22:48.712Z,63.36
2019-04-28T12:23:48.747Z,63.37
2019-04-28T12:24:48.684Z,59.16
2019-04-28T12:25:48.677Z,58.49
2019-04-28T12:26:48.666Z,62.59
2019-04-28T12:27:48.651Z,55.17
2019-04-28T12:28:48.682Z,51.35
2019-04-28T12:29:48.634Z,53.78
2019-04-28T12:30:48.623Z,59.72
2019-04-28T12:31:48.612Z,59.06
2019-04-28T12:32:48.604Z,52.34
2019-04-28T12:33:48.623Z,51.98
2019-04-28T12:34:48.583Z,55.11
2019-04-28T12:35:48.572Z,53.45
2019-04-28T12:36:48.560Z,56.82
2019-04-28T12:37:48.550Z,56.63
2019-04-28T12:38:48.574Z,56.94
2019-04-28T12:39:48.527Z,49.25
2019-04-28T12:40:48.518Z,53.30
2019-04-28T12:41:48.510Z,53.34
2019-04-28T12:42:48.496Z,53.22
2019-04-28T12:43:48.507Z,49.96
2019-04-28T12:44:48.483Z,51.07
2019-04-28T12:45:48.463Z,51.93
2019-04-28T12:46:48.489Z,54.76
2019-04-28T12:47:48.456Z,55.16
2019-04-28T12:48:48.432Z,53.27
2019-04-28T12:49:48.433Z,56.23
2019-04-28T12:50:48.424Z,58.05
2019-04-28T12:51:48.437Z,57.95
2019-04-28T12:52:48.387Z,57.67